sensor_id;sensor_type;location;lat;lon;timestamp;pressure;altitude;pressure_sealevel;temperature;humidity
71621;BME280;59471;42.254;23.102;2022-10-16T00:01:22;96526.66;;;8.02;73.55
71621;BME280;59471;42.254;23.102;2022-10-16T00:03:49;96531.59;;;8.05;73.17
71621;BME280;59471;42.254;23.102;2022-10-16T00:06:17;96535.66;;;8.18;73.39
71621;BME280;59471;42.254;23.102;2022-10-16T00:08:45;96531.16;;;8.10;73.05
71621;BME280;59471;42.254;23.102;2022-10-16T00:11:14;96534.44;;;7.75;74.26
71621;BME280;59471;42.254;23.102;2022-10-16T00:13:42;96535.88;;;7.59;75.11
71621;BME280;59471;42.254;23.102;2022-10-16T00:16:10;96543.47;;;7.90;73.79
71621;BME280;59471;42.254;23.102;2022-10-16T00:18:37;96546.72;;;8.02;73.17
71621;BME280;59471;42.254;23.102;2022-10-16T00:21:08;96543.84;;;8.23;72.56
71621;BME280;59471;42.254;23.102;2022-10-16T00:23:36;96556.91;;;8.23;72.37
71621;BME280;59471;42.254;23.102;2022-10-16T00:26:05;96551.84;;;8.21;72.55
71621;BME280;59471;42.254;23.102;2022-10-16T00:28:33;96555.19;;;8.13;73.04
71621;BME280;59471;42.254;23.102;2022-10-16T00:31:03;96555.53;;;7.91;73.19
71621;BME280;59471;42.254;23.102;2022-10-16T00:33:30;96549.81;;;7.78;73.69
71621;BME280;59471;42.254;23.102;2022-10-16T00:35:58;96549.13;;;7.85;73.28
71621;BME280;59471;42.254;23.102;2022-10-16T00:38:24;96554.25;;;7.68;73.85
71621;BME280;59471;42.254;23.102;2022-10-16T00:40:50;96550.94;;;7.65;74.13
71621;BME280;59471;42.254;23.102;2022-10-16T00:43:47;96556.34;;;7.54;74.18
71621;BME280;59471;42.254;23.102;2022-10-16T00:49:19;96567.56;;;7.64;73.87
71621;BME280;59471;42.254;23.102;2022-10-16T00:51:48;96565.22;;;7.61;73.68
71621;BME280;59471;42.254;23.102;2022-10-16T00:54:29;96574.38;;;7.85;72.90
71621;BME280;59471;42.254;23.102;2022-10-16T00:57:00;96572.63;;;7.76;73.17
71621;BME280;59471;42.254;23.102;2022-10-16T00:59:39;96574.03;;;7.60;73.16
71621;BME280;59471;42.254;23.102;2022-10-16T01:02:09;96576.88;;;7.67;73.02
71621;BME280;59471;42.254;23.102;2022-10-16T01:04:42;96581.09;;;7.78;72.64
71621;BME280;59471;42.254;23.102;2022-10-16T01:12:50;96582.56;;;7.33;74.24
71621;BME280;59471;42.254;23.102;2022-10-16T01:18:10;96587.34;;;7.48;74.30
71621;BME280;59471;42.254;23.102;2022-10-16T01:32:43;96594.63;;;7.25;74.06
71621;BME280;59471;42.254;23.102;2022-10-16T01:35:25;96593.94;;;7.42;73.76
71621;BME280;59471;42.254;23.102;2022-10-16T01:38:07;96593.69;;;7.35;74.47
71621;BME280;59471;42.254;23.102;2022-10-16T01:40:39;96599.97;;;7.42;73.70
71621;BME280;59471;42.254;23.102;2022-10-16T01:43:20;96601.78;;;7.23;74.38
71621;BME280;59471;42.254;23.102;2022-10-16T01:45:50;96590.81;;;7.09;74.90
71621;BME280;59471;42.254;23.102;2022-10-16T01:48:19;96600.38;;;7.18;74.87
71621;BME280;59471;42.254;23.102;2022-10-16T01:51:01;96599.56;;;7.18;73.63
71621;BME280;59471;42.254;23.102;2022-10-16T01:53:31;96599.56;;;7.08;74.07
71621;BME280;59471;42.254;23.102;2022-10-16T01:55:58;96601.19;;;6.90;75.67
71621;BME280;59471;42.254;23.102;2022-10-16T01:58:25;96597.94;;;7.07;75.03
71621;BME280;59471;42.254;23.102;2022-10-16T02:00:53;96593.28;;;7.11;74.64
71621;BME280;59471;42.254;23.102;2022-10-16T02:03:20;96601.09;;;7.20;74.60
71621;BME280;59471;42.254;23.102;2022-10-16T02:05:53;96604.78;;;7.28;73.62
71621;BME280;59471;42.254;23.102;2022-10-16T02:08:22;96608.91;;;7.20;73.79
71621;BME280;59471;42.254;23.102;2022-10-16T02:10:50;96610.81;;;7.38;73.50
71621;BME280;59471;42.254;23.102;2022-10-16T02:13:32;96608.50;;;7.25;73.82
71621;BME280;59471;42.254;23.102;2022-10-16T02:16:01;96608.34;;;7.27;74.16
71621;BME280;59471;42.254;23.102;2022-10-16T02:18:26;96606.16;;;7.12;73.74
71621;BME280;59471;42.254;23.102;2022-10-16T02:21:05;96613.13;;;6.83;75.79
71621;BME280;59471;42.254;23.102;2022-10-16T02:23:53;96619.97;;;6.84;75.63
71621;BME280;59471;42.254;23.102;2022-10-16T02:26:29;96626.94;;;6.73;75.80
71621;BME280;59471;42.254;23.102;2022-10-16T02:29:01;96634.09;;;6.71;76.80
71621;BME280;59471;42.254;23.102;2022-10-16T02:31:33;96624.25;;;6.94;75.49
71621;BME280;59471;42.254;23.102;2022-10-16T02:34:03;96626.88;;;7.14;73.83
71621;BME280;59471;42.254;23.102;2022-10-16T02:36:30;96628.38;;;7.16;73.90
71621;BME280;59471;42.254;23.102;2022-10-16T02:38:58;96634.53;;;7.06;74.60
71621;BME280;59471;42.254;23.102;2022-10-16T02:41:26;96629.59;;;7.12;74.20
71621;BME280;59471;42.254;23.102;2022-10-16T02:43:51;96637.56;;;7.40;73.36
71621;BME280;59471;42.254;23.102;2022-10-16T02:46:18;96628.09;;;7.10;74.95
71621;BME280;59471;42.254;23.102;2022-10-16T02:48:43;96633.28;;;6.90;76.13
71621;BME280;59471;42.254;23.102;2022-10-16T02:51:09;96638.34;;;6.82;77.31
71621;BME280;59471;42.254;23.102;2022-10-16T02:53:35;96633.84;;;6.94;76.86
71621;BME280;59471;42.254;23.102;2022-10-16T02:56:01;96629.59;;;7.12;74.94
71621;BME280;59471;42.254;23.102;2022-10-16T02:58:26;96622.34;;;7.26;74.07
71621;BME280;59471;42.254;23.102;2022-10-16T03:00:52;96642.06;;;7.18;74.80
71621;BME280;59471;42.254;23.102;2022-10-16T03:03:17;96643.19;;;7.06;74.43
71621;BME280;59471;42.254;23.102;2022-10-16T03:05:44;96643.28;;;6.95;75.33
71621;BME280;59471;42.254;23.102;2022-10-16T03:08:12;96638.19;;;6.74;76.49
71621;BME280;59471;42.254;23.102;2022-10-16T03:10:38;96638.06;;;6.76;77.77
71621;BME280;59471;42.254;23.102;2022-10-16T03:13:03;96633.56;;;6.97;77.17
71621;BME280;59471;42.254;23.102;2022-10-16T03:15:29;96633.00;;;6.93;76.40
71621;BME280;59471;42.254;23.102;2022-10-16T03:17:57;96638.09;;;6.95;75.99
71621;BME280;59471;42.254;23.102;2022-10-16T03:20:24;96640.97;;;7.02;75.07
71621;BME280;59471;42.254;23.102;2022-10-16T03:22:49;96639.31;;;6.91;75.57
71621;BME280;59471;42.254;23.102;2022-10-16T03:25:15;96640.69;;;6.85;75.58
71621;BME280;59471;42.254;23.102;2022-10-16T03:27:41;96645.09;;;7.04;73.94
71621;BME280;59471;42.254;23.102;2022-10-16T03:30:07;96643.31;;;7.05;73.90
71621;BME280;59471;42.254;23.102;2022-10-16T03:32:33;96638.25;;;7.23;72.55
71621;BME280;59471;42.254;23.102;2022-10-16T03:34:59;96640.44;;;7.08;73.26
71621;BME280;59471;42.254;23.102;2022-10-16T03:37:24;96637.22;;;6.65;74.53
71621;BME280;59471;42.254;23.102;2022-10-16T03:39:50;96635.41;;;6.56;75.59
71621;BME280;59471;42.254;23.102;2022-10-16T03:42:15;96633.13;;;6.32;76.70
71621;BME280;59471;42.254;23.102;2022-10-16T03:44:41;96633.44;;;6.39;76.56
71621;BME280;59471;42.254;23.102;2022-10-16T03:47:06;96638.69;;;6.58;75.35
71621;BME280;59471;42.254;23.102;2022-10-16T03:49:32;96644.69;;;6.49;76.92
71621;BME280;59471;42.254;23.102;2022-10-16T03:51:57;96641.78;;;7.12;75.47
71621;BME280;59471;42.254;23.102;2022-10-16T03:54:23;96643.47;;;7.13;75.79
71621;BME280;59471;42.254;23.102;2022-10-16T03:56:48;96637.31;;;6.54;77.39
71621;BME280;59471;42.254;23.102;2022-10-16T03:59:14;96638.47;;;6.31;78.06
71621;BME280;59471;42.254;23.102;2022-10-16T04:01:39;96637.06;;;6.57;77.10
71621;BME280;59471;42.254;23.102;2022-10-16T04:04:05;96638.38;;;6.42;77.56
71621;BME280;59471;42.254;23.102;2022-10-16T04:06:31;96639.75;;;6.46;76.57
71621;BME280;59471;42.254;23.102;2022-10-16T04:08:56;96641.16;;;6.50;76.24
71621;BME280;59471;42.254;23.102;2022-10-16T04:11:22;96648.00;;;6.51;75.71
71621;BME280;59471;42.254;23.102;2022-10-16T04:13:48;96643.88;;;6.58;75.52
71621;BME280;59471;42.254;23.102;2022-10-16T04:16:13;96641.81;;;6.52;75.88
71621;BME280;59471;42.254;23.102;2022-10-16T04:18:39;96651.59;;;6.69;75.85
71621;BME280;59471;42.254;23.102;2022-10-16T04:21:05;96650.22;;;6.65;75.72
71621;BME280;59471;42.254;23.102;2022-10-16T04:23:32;96651.06;;;6.66;76.31
71621;BME280;59471;42.254;23.102;2022-10-16T04:25:59;96653.16;;;7.01;75.14
71621;BME280;59471;42.254;23.102;2022-10-16T04:28:25;96638.69;;;6.58;76.38
71621;BME280;59471;42.254;23.102;2022-10-16T04:30:50;96636.47;;;6.13;78.11
71621;BME280;59471;42.254;23.102;2022-10-16T04:33:16;96638.84;;;6.26;77.24
71621;BME280;59471;42.254;23.102;2022-10-16T04:35:41;96640.16;;;6.11;77.24
71621;BME280;59471;42.254;23.102;2022-10-16T04:38:07;96637.19;;;6.15;77.43
71621;BME280;59471;42.254;23.102;2022-10-16T04:40:33;96641.63;;;6.34;76.55
71621;BME280;59471;42.254;23.102;2022-10-16T04:43:04;96643.31;;;6.45;75.80
71621;BME280;59471;42.254;23.102;2022-10-16T04:45:30;96648.97;;;6.19;75.69
71621;BME280;59471;42.254;23.102;2022-10-16T04:47:57;96642.06;;;5.88;77.14
71621;BME280;59471;42.254;23.102;2022-10-16T04:50:23;96651.47;;;6.00;76.95
71621;BME280;59471;42.254;23.102;2022-10-16T04:52:49;96655.81;;;6.20;76.35
71621;BME280;59471;42.254;23.102;2022-10-16T04:55:15;96658.63;;;6.08;76.19
71621;BME280;59471;42.254;23.102;2022-10-16T04:57:40;96658.91;;;6.14;75.71
71621;BME280;59471;42.254;23.102;2022-10-16T05:00:07;96656.94;;;6.28;75.52
71621;BME280;59471;42.254;23.102;2022-10-16T05:02:33;96660.28;;;6.49;74.11
71621;BME280;59471;42.254;23.102;2022-10-16T05:04:59;96663.53;;;6.32;74.28
71621;BME280;59471;42.254;23.102;2022-10-16T05:07:24;96663.00;;;6.07;75.92
71621;BME280;59471;42.254;23.102;2022-10-16T05:09:50;96668.28;;;5.96;76.63
71621;BME280;59471;42.254;23.102;2022-10-16T05:12:15;96675.94;;;5.97;77.26
71621;BME280;59471;42.254;23.102;2022-10-16T05:14:41;96674.88;;;6.00;77.20
71621;BME280;59471;42.254;23.102;2022-10-16T05:17:07;96679.06;;;6.12;75.96
71621;BME280;59471;42.254;23.102;2022-10-16T05:19:32;96679.91;;;6.22;76.54
71621;BME280;59471;42.254;23.102;2022-10-16T05:21:58;96680.78;;;6.33;76.03
71621;BME280;59471;42.254;23.102;2022-10-16T05:24:24;96681.25;;;6.17;77.18
71621;BME280;59471;42.254;23.102;2022-10-16T05:26:50;96680.78;;;6.33;76.45
71621;BME280;59471;42.254;23.102;2022-10-16T05:29:15;96692.63;;;6.46;76.24
71621;BME280;59471;42.254;23.102;2022-10-16T05:31:41;96692.22;;;6.20;77.30
71621;BME280;59471;42.254;23.102;2022-10-16T05:34:06;96685.38;;;6.19;78.12
71621;BME280;59471;42.254;23.102;2022-10-16T05:36:32;96689.25;;;6.25;79.46
71621;BME280;59471;42.254;23.102;2022-10-16T05:38:58;96693.59;;;7.05;75.75
71621;BME280;59471;42.254;23.102;2022-10-16T05:41:23;96695.47;;;6.84;76.17
71621;BME280;59471;42.254;23.102;2022-10-16T05:43:51;96704.72;;;7.07;76.82
71621;BME280;59471;42.254;23.102;2022-10-16T05:46:18;96708.69;;;7.02;77.37
71621;BME280;59471;42.254;23.102;2022-10-16T05:48:43;96706.22;;;7.00;78.07
71621;BME280;59471;42.254;23.102;2022-10-16T05:51:12;96697.47;;;7.20;77.79
71621;BME280;59471;42.254;23.102;2022-10-16T05:53:39;96711.75;;;7.36;76.37
71621;BME280;59471;42.254;23.102;2022-10-16T05:56:06;96708.16;;;7.17;76.92
71621;BME280;59471;42.254;23.102;2022-10-16T05:58:35;96715.53;;;7.12;77.41
71621;BME280;59471;42.254;23.102;2022-10-16T06:01:06;96710.06;;;7.15;77.00
71621;BME280;59471;42.254;23.102;2022-10-16T06:03:36;96721.63;;;7.23;77.95
71621;BME280;59471;42.254;23.102;2022-10-16T06:06:15;96728.63;;;7.32;78.38
71621;BME280;59471;42.254;23.102;2022-10-16T06:08:43;96723.00;;;7.36;78.30
71621;BME280;59471;42.254;23.102;2022-10-16T06:11:12;96737.56;;;7.58;77.54
71621;BME280;59471;42.254;23.102;2022-10-16T06:13:40;96728.25;;;7.85;76.19
71621;BME280;59471;42.254;23.102;2022-10-16T06:16:09;96727.94;;;7.88;76.53
71621;BME280;59471;42.254;23.102;2022-10-16T06:18:35;96730.53;;;7.88;77.44
71621;BME280;59471;42.254;23.102;2022-10-16T06:21:10;96734.38;;;7.94;76.34
71621;BME280;59471;42.254;23.102;2022-10-16T06:23:37;96736.94;;;8.23;76.67
71621;BME280;59471;42.254;23.102;2022-10-16T06:26:10;96741.31;;;8.32;75.86
71621;BME280;59471;42.254;23.102;2022-10-16T06:28:42;96745.91;;;8.20;76.44
71621;BME280;59471;42.254;23.102;2022-10-16T06:31:09;96743.78;;;8.53;75.34
71621;BME280;59471;42.254;23.102;2022-10-16T06:33:36;96741.94;;;8.63;75.51
71621;BME280;59471;42.254;23.102;2022-10-16T06:36:10;96746.56;;;8.79;73.99
71621;BME280;59471;42.254;23.102;2022-10-16T06:38:40;96741.50;;;8.77;74.61
71621;BME280;59471;42.254;23.102;2022-10-16T06:41:07;96743.28;;;9.04;73.30
71621;BME280;59471;42.254;23.102;2022-10-16T06:43:34;96750.44;;;8.75;73.64
71621;BME280;59471;42.254;23.102;2022-10-16T06:46:04;96755.81;;;8.64;75.46
71621;BME280;59471;42.254;23.102;2022-10-16T06:48:33;96759.06;;;8.85;75.03
71621;BME280;59471;42.254;23.102;2022-10-16T06:51:03;96756.91;;;9.26;73.42
71621;BME280;59471;42.254;23.102;2022-10-16T06:53:32;96761.13;;;9.55;71.50
71621;BME280;59471;42.254;23.102;2022-10-16T06:56:15;96759.66;;;9.52;72.17
71621;BME280;59471;42.254;23.102;2022-10-16T06:58:43;96766.22;;;9.38;72.90
71621;BME280;59471;42.254;23.102;2022-10-16T07:01:10;96768.78;;;9.66;71.10
71621;BME280;59471;42.254;23.102;2022-10-16T07:03:37;96766.91;;;9.58;72.92
71621;BME280;59471;42.254;23.102;2022-10-16T07:06:06;96775.50;;;9.86;71.00
71621;BME280;59471;42.254;23.102;2022-10-16T07:08:37;96768.09;;;9.64;71.72
71621;BME280;59471;42.254;23.102;2022-10-16T07:11:06;96770.88;;;9.80;71.22
71621;BME280;59471;42.254;23.102;2022-10-16T07:13:33;96770.34;;;9.59;72.06
71621;BME280;59471;42.254;23.102;2022-10-16T07:18:35;96776.56;;;9.75;71.82
71621;BME280;59471;42.254;23.102;2022-10-16T07:21:09;96771.66;;;9.45;73.23
71621;BME280;59471;42.254;23.102;2022-10-16T07:23:37;96777.25;;;9.32;73.60
71621;BME280;59471;42.254;23.102;2022-10-16T07:26:03;96774.91;;;9.57;72.40
71621;BME280;59471;42.254;23.102;2022-10-16T07:28:29;96771.44;;;9.38;72.95
71621;BME280;59471;42.254;23.102;2022-10-16T07:30:55;96782.34;;;9.51;73.81
71621;BME280;59471;42.254;23.102;2022-10-16T07:33:25;96784.19;;;9.69;71.45
71621;BME280;59471;42.254;23.102;2022-10-16T07:35:52;96784.25;;;9.59;72.37
71621;BME280;59471;42.254;23.102;2022-10-16T07:38:19;96789.44;;;9.87;71.65
71621;BME280;59471;42.254;23.102;2022-10-16T07:40:45;96788.59;;;10.04;72.27
71621;BME280;59471;42.254;23.102;2022-10-16T07:43:11;96783.13;;;10.33;70.56
71621;BME280;59471;42.254;23.102;2022-10-16T07:45:38;96789.09;;;10.43;70.67
71621;BME280;59471;42.254;23.102;2022-10-16T07:48:11;96789.91;;;10.70;70.10
71621;BME280;59471;42.254;23.102;2022-10-16T07:50:37;96789.09;;;10.70;70.44
71621;BME280;59471;42.254;23.102;2022-10-16T07:53:03;96788.13;;;11.05;68.97
71621;BME280;59471;42.254;23.102;2022-10-16T07:55:28;96783.50;;;11.41;67.79
71621;BME280;59471;42.254;23.102;2022-10-16T07:57:54;96788.50;;;11.60;66.10
71621;BME280;59471;42.254;23.102;2022-10-16T08:00:20;96792.19;;;11.33;67.18
71621;BME280;59471;42.254;23.102;2022-10-16T08:02:45;96784.03;;;11.53;67.52
71621;BME280;59471;42.254;23.102;2022-10-16T08:05:11;96786.69;;;11.69;65.73
71621;BME280;59471;42.254;23.102;2022-10-16T08:07:36;96792.66;;;11.88;65.72
71621;BME280;59471;42.254;23.102;2022-10-16T08:10:02;96788.03;;;11.73;65.23
71621;BME280;59471;42.254;23.102;2022-10-16T08:12:28;96779.97;;;11.58;67.02
71621;BME280;59471;42.254;23.102;2022-10-16T08:14:54;96782.28;;;11.78;66.17
71621;BME280;59471;42.254;23.102;2022-10-16T08:17:19;96789.00;;;11.72;65.87
71621;BME280;59471;42.254;23.102;2022-10-16T08:19:46;96787.13;;;11.99;65.50
71621;BME280;59471;42.254;23.102;2022-10-16T08:22:15;96782.53;;;12.09;64.15
71621;BME280;59471;42.254;23.102;2022-10-16T08:24:40;96781.00;;;11.23;66.67
71621;BME280;59471;42.254;23.102;2022-10-16T08:27:06;96775.88;;;11.72;65.83
71621;BME280;59471;42.254;23.102;2022-10-16T08:29:34;96772.97;;;11.83;66.41
71621;BME280;59471;42.254;23.102;2022-10-16T08:31:59;96771.53;;;12.05;65.84
71621;BME280;59471;42.254;23.102;2022-10-16T08:34:25;96772.34;;;12.31;63.96
71621;BME280;59471;42.254;23.102;2022-10-16T08:36:53;96769.41;;;12.34;63.95
71621;BME280;59471;42.254;23.102;2022-10-16T08:39:19;96770.03;;;12.36;65.37
71621;BME280;59471;42.254;23.102;2022-10-16T08:47:31;96767.88;;;12.64;64.51
71621;BME280;59471;42.254;23.102;2022-10-16T08:50:18;96771.00;;;12.51;64.33
71621;BME280;59471;42.254;23.102;2022-10-16T08:52:49;96763.88;;;12.84;63.39
71621;BME280;59471;42.254;23.102;2022-10-16T08:55:37;96765.25;;;13.19;64.19
71621;BME280;59471;42.254;23.102;2022-10-16T09:00:41;96762.66;;;13.51;61.28
71621;BME280;59471;42.254;23.102;2022-10-16T09:03:14;96761.75;;;13.66;62.38
71621;BME280;59471;42.254;23.102;2022-10-16T09:09:29;96757.56;;;14.03;59.54
71621;BME280;59471;42.254;23.102;2022-10-16T09:12:04;96751.44;;;14.03;58.62
71621;BME280;59471;42.254;23.102;2022-10-16T09:25:29;96754.16;;;13.95;60.58
71621;BME280;59471;42.254;23.102;2022-10-16T09:27:55;96752.50;;;14.17;60.28
71621;BME280;59471;42.254;23.102;2022-10-16T09:30:22;96758.25;;;14.58;58.61
71621;BME280;59471;42.254;23.102;2022-10-16T09:32:51;96745.72;;;14.75;57.70
71621;BME280;59471;42.254;23.102;2022-10-16T09:35:22;96742.19;;;14.82;58.07
71621;BME280;59471;42.254;23.102;2022-10-16T09:37:54;96741.78;;;15.00;55.38
71621;BME280;59471;42.254;23.102;2022-10-16T09:40:26;96736.16;;;15.03;55.76
71621;BME280;59471;42.254;23.102;2022-10-16T09:46:09;96731.34;;;15.07;57.78
71621;BME280;59471;42.254;23.102;2022-10-16T09:48:49;96728.59;;;15.30;55.98
71621;BME280;59471;42.254;23.102;2022-10-16T09:51:23;96726.13;;;15.28;56.32
71621;BME280;59471;42.254;23.102;2022-10-16T09:56:32;96718.53;;;15.40;56.44
71621;BME280;59471;42.254;23.102;2022-10-16T09:59:08;96727.19;;;15.49;53.45
71621;BME280;59471;42.254;23.102;2022-10-16T10:01:39;96725.84;;;15.74;52.22
71621;BME280;59471;42.254;23.102;2022-10-16T10:04:07;96723.66;;;15.63;54.59
71621;BME280;59471;42.254;23.102;2022-10-16T10:06:35;96717.94;;;15.60;54.33
71621;BME280;59471;42.254;23.102;2022-10-16T10:09:06;96719.13;;;15.93;54.47
71621;BME280;59471;42.254;23.102;2022-10-16T10:11:42;96709.16;;;16.17;53.85
71621;BME280;59471;42.254;23.102;2022-10-16T10:14:19;96710.81;;;16.18;54.65
71621;BME280;59471;42.254;23.102;2022-10-16T10:17:25;96715.03;;;16.40;52.81
71621;BME280;59471;42.254;23.102;2022-10-16T10:20:00;96698.91;;;16.63;50.38
71621;BME280;59471;42.254;23.102;2022-10-16T10:30:33;96689.72;;;16.87;50.77
71621;BME280;59471;42.254;23.102;2022-10-16T10:33:59;96678.84;;;17.17;48.25
71621;BME280;59471;42.254;23.102;2022-10-16T10:36:49;96679.63;;;17.04;48.09
71621;BME280;59471;42.254;23.102;2022-10-16T10:42:02;96672.28;;;17.00;49.80
71621;BME280;59471;42.254;23.102;2022-10-16T10:45:01;96673.97;;;17.21;49.85
71621;BME280;59471;42.254;23.102;2022-10-16T10:48:03;96663.88;;;17.37;48.07
71621;BME280;59471;42.254;23.102;2022-10-16T10:51:07;96665.50;;;17.52;47.42
71621;BME280;59471;42.254;23.102;2022-10-16T11:07:52;96645.00;;;18.20;47.48
71621;BME280;59471;42.254;23.102;2022-10-16T11:10:41;96643.56;;;18.11;46.25
71621;BME280;59471;42.254;23.102;2022-10-16T11:13:39;96637.88;;;18.14;47.17
71621;BME280;59471;42.254;23.102;2022-10-16T11:19:03;96631.16;;;17.92;47.38
71621;BME280;59471;42.254;23.102;2022-10-16T11:21:50;96628.09;;;18.08;46.06
71621;BME280;59471;42.254;23.102;2022-10-16T11:24:35;96620.91;;;17.62;46.34
71621;BME280;59471;42.254;23.102;2022-10-16T11:27:09;96625.59;;;17.60;46.93
71621;BME280;59471;42.254;23.102;2022-10-16T11:29:47;96630.09;;;17.53;47.95
71621;BME280;59471;42.254;23.102;2022-10-16T11:32:24;96622.56;;;17.90;45.75
71621;BME280;59471;42.254;23.102;2022-10-16T11:35:02;96619.94;;;17.90;46.16
71621;BME280;59471;42.254;23.102;2022-10-16T11:37:39;96615.81;;;18.34;44.54
71621;BME280;59471;42.254;23.102;2022-10-16T11:40:24;96624.97;;;18.44;43.75
71621;BME280;59471;42.254;23.102;2022-10-16T11:43:03;96616.44;;;18.09;45.69
71621;BME280;59471;42.254;23.102;2022-10-16T11:50:54;96607.53;;;18.82;43.60
71621;BME280;59471;42.254;23.102;2022-10-16T11:56:06;96610.34;;;18.93;41.30
71621;BME280;59471;42.254;23.102;2022-10-16T11:58:40;96604.16;;;19.06;41.03
71621;BME280;59471;42.254;23.102;2022-10-16T12:01:26;96606.81;;;19.06;42.36
71621;BME280;59471;42.254;23.102;2022-10-16T12:04:06;96597.50;;;19.29;40.61
71621;BME280;59471;42.254;23.102;2022-10-16T12:06:40;96606.84;;;19.38;39.13
71621;BME280;59471;42.254;23.102;2022-10-16T12:09:17;96600.72;;;19.37;38.59
71621;BME280;59471;42.254;23.102;2022-10-16T12:11:45;96600.03;;;19.17;41.13
71621;BME280;59471;42.254;23.102;2022-10-16T12:19:27;96597.16;;;19.50;40.06
71621;BME280;59471;42.254;23.102;2022-10-16T12:21:57;96600.25;;;19.47;39.96
71621;BME280;59471;42.254;23.102;2022-10-16T12:24:33;96593.88;;;19.55;36.70
71621;BME280;59471;42.254;23.102;2022-10-16T12:27:01;96591.56;;;19.65;36.08
71621;BME280;59471;42.254;23.102;2022-10-16T12:32:22;96591.94;;;19.68;37.75
71621;BME280;59471;42.254;23.102;2022-10-16T12:34:51;96594.38;;;19.95;36.89
71621;BME280;59471;42.254;23.102;2022-10-16T12:37:26;96593.69;;;20.06;36.34
71621;BME280;59471;42.254;23.102;2022-10-16T12:40:32;96593.38;;;19.96;36.55
71621;BME280;59471;42.254;23.102;2022-10-16T12:42:57;96582.59;;;19.59;37.07
71621;BME280;59471;42.254;23.102;2022-10-16T12:45:32;96591.94;;;19.68;35.62
71621;BME280;59471;42.254;23.102;2022-10-16T12:48:04;96592.56;;;19.71;35.99
71621;BME280;59471;42.254;23.102;2022-10-16T12:50:44;96583.72;;;19.77;38.15
71621;BME280;59471;42.254;23.102;2022-10-16T12:53:21;96589.47;;;19.74;36.17
71621;BME280;59471;42.254;23.102;2022-10-16T12:56:01;96597.59;;;19.79;36.75
71621;BME280;59471;42.254;23.102;2022-10-16T12:58:55;96600.41;;;19.84;36.41
71621;BME280;59471;42.254;23.102;2022-10-16T13:01:48;96587.97;;;20.03;34.90
71621;BME280;59471;42.254;23.102;2022-10-16T13:07:32;96591.94;;;20.19;34.33
71621;BME280;59471;42.254;23.102;2022-10-16T13:30:01;96599.41;;;20.47;32.83
71621;BME280;59471;42.254;23.102;2022-10-16T13:32:34;96600.56;;;20.57;31.39
71621;BME280;59471;42.254;23.102;2022-10-16T13:34:59;96599.13;;;20.36;31.17
71621;BME280;59471;42.254;23.102;2022-10-16T13:37:26;96600.22;;;20.29;32.16
71621;BME280;59471;42.254;23.102;2022-10-16T13:40:06;96598.44;;;20.41;31.20
71621;BME280;59471;42.254;23.102;2022-10-16T13:42:38;96593.53;;;20.20;31.63
71621;BME280;59471;42.254;23.102;2022-10-16T13:45:04;96604.34;;;20.25;31.77
71621;BME280;59471;42.254;23.102;2022-10-16T13:47:30;96604.03;;;20.14;31.55
71621;BME280;59471;42.254;23.102;2022-10-16T13:50:05;96601.38;;;20.14;30.43
71621;BME280;59471;42.254;23.102;2022-10-16T13:52:35;96600.63;;;20.07;31.38
71621;BME280;59471;42.254;23.102;2022-10-16T13:55:00;96608.00;;;20.05;31.65
71621;BME280;59471;42.254;23.102;2022-10-16T13:57:26;96609.94;;;20.17;31.20
71621;BME280;59471;42.254;23.102;2022-10-16T13:59:52;96603.25;;;20.32;31.33
71621;BME280;59471;42.254;23.102;2022-10-16T14:04:50;96606.00;;;20.01;31.20
71621;BME280;59471;42.254;23.102;2022-10-16T14:07:31;96610.06;;;20.03;30.78
71621;BME280;59471;42.254;23.102;2022-10-16T14:10:05;96609.47;;;20.01;31.39
71621;BME280;59471;42.254;23.102;2022-10-16T14:12:32;96602.78;;;19.92;31.33
71621;BME280;59471;42.254;23.102;2022-10-16T14:14:59;96608.78;;;19.87;31.83
71621;BME280;59471;42.254;23.102;2022-10-16T14:17:31;96609.03;;;19.79;32.03
71621;BME280;59471;42.254;23.102;2022-10-16T14:19:59;96608.94;;;19.67;32.09
71621;BME280;59471;42.254;23.102;2022-10-16T14:22:37;96606.59;;;19.78;32.61
71621;BME280;59471;42.254;23.102;2022-10-16T14:28:18;96616.47;;;19.71;33.49
71621;BME280;59471;42.254;23.102;2022-10-16T14:30:54;96625.88;;;19.66;34.07
71621;BME280;59471;42.254;23.102;2022-10-16T14:33:32;96617.34;;;19.64;34.07
71621;BME280;59471;42.254;23.102;2022-10-16T14:38:42;96615.66;;;19.63;34.51
71621;BME280;59471;42.254;23.102;2022-10-16T14:41:14;96625.94;;;19.53;34.64
71621;BME280;59471;42.254;23.102;2022-10-16T14:43:42;96620.97;;;19.32;35.10
71621;BME280;59471;42.254;23.102;2022-10-16T14:46:22;96626.13;;;19.27;35.43
71621;BME280;59471;42.254;23.102;2022-10-16T14:49:00;96631.25;;;19.21;35.77
71621;BME280;59471;42.254;23.102;2022-10-16T14:51:28;96632.31;;;19.14;35.40
71621;BME280;59471;42.254;23.102;2022-10-16T14:53:54;96641.34;;;18.99;36.39
71621;BME280;59471;42.254;23.102;2022-10-16T14:56:25;96639.75;;;18.92;36.46
71621;BME280;59471;42.254;23.102;2022-10-16T14:59:00;96643.25;;;18.86;36.09
71621;BME280;59471;42.254;23.102;2022-10-16T15:01:27;96636.13;;;18.80;36.95
71621;BME280;59471;42.254;23.102;2022-10-16T15:03:52;96637.78;;;18.67;36.72
71621;BME280;59471;42.254;23.102;2022-10-16T15:06:20;96639.03;;;18.58;36.75
71621;BME280;59471;42.254;23.102;2022-10-16T15:08:46;96642.91;;;18.49;37.02
71621;BME280;59471;42.254;23.102;2022-10-16T15:11:16;96643.13;;;18.34;37.25
71621;BME280;59471;42.254;23.102;2022-10-16T15:13:43;96642.34;;;18.20;37.47
71621;BME280;59471;42.254;23.102;2022-10-16T15:16:14;96642.53;;;18.12;38.16
71621;BME280;59471;42.254;23.102;2022-10-16T15:18:41;96640.72;;;18.13;37.81
71621;BME280;59471;42.254;23.102;2022-10-16T15:21:07;96644.81;;;18.02;37.57
71621;BME280;59471;42.254;23.102;2022-10-16T15:23:33;96646.44;;;17.96;38.32